Fertile, IA (50434)

10:32 PM CST on December 22, 2014 (GMT -0600)
Southwest Fertile | Change Station
CLOSE
Current Station
Personal Weather Station
Location: Fertile, IA
Elevation: 1181 ft
Nearby Weather Stations

Elev 1181 ft 43.26 °N, 93.43 °W | Updated 8 minutes ago

Overcast
Overcast
32.7 °F
Feels Like 28 °F
N
4.7
Wind Variable Wind from ESE

Today
High -- | Low -- °F
--% Chance of Precip.
Yesterday
High -- | Low -- °F
Precip. -- in
7:43 AM 4:41 PM
New Moon, 2% visible
Pressure 29.54 in
Visibility 1.0 miles
Clouds Overcast 200 ft
Windchill 28 °F
Dew Point 32 °F
Humidity 99%
Rainfall 0.25 in
Snow Depth Not available.
UV 0 out of 12
Pollen .10 out of 12
Air Quality Not available.
Flu Activity Not available.
METAR KMCW 230353Z AUTO 08009KT 1SM UP BR OVC002 01/01 A2952 RMK AO2 UPB05E34B52SNB34E52 SLP003 P0000 T00060006 $

More Conditions Fewer Conditions

Pressure 29.54 in
Visibility 1.0 miles
Clouds Overcast 200 ft
Windchill 28 °F
Dew Point 32 °F
Humidity 99%
Rainfall 0.25 in
Snow Depth Not available.
UV 0 out of 12
Pollen .10 out of 12
Air Quality Not available.
Flu Activity Not available.
METAR KMCW 230353Z AUTO 08009KT 1SM UP BR OVC002 01/01 A2952 RMK AO2 UPB05E34B52SNB34E52 SLP003 P0000 T00060006 $

More Conditions Fewer Conditions

10-Day Weather Forecast

Almanac

Astronomy

Dec. 22, 2014 Rise Set
Actual Time
Civil Twilight
Nautical Twilight
Astronomical Twilight
Moon
Length of Visible Light
Length of Day
Tomorrow will be .
, % of the Moon is Illuminated

Today's Extremes

State Highs State Lows

Community

WunderPhotos

Upload Photos

1,779,778 photos uploaded!

WunderBlogs® & News

Nearby

Air Quality

  Air Quality AQ Index Pollutant
Not available.

Snow Depth

Station Depth Elevation

Earthquake Activity

City Distance Mag. Time & Date
Minimum magnitude displayed is 2.5.

Coastal Water Temperatures

Place Temperature

Nearby Weather Stations